Marianne — VRFM5 — position and weather

sailwx.info

Track history (hours):
 
Tides and Currents Weather Stations Pressure Air Temp Water Temp Dewpoint Dewpoint Depression Visibility Wind Speed Wind Dir Waves Ship Positions

Marianne

Last reported at 2017-Nov-20 00:30 UTC. Time now 2017-Nov-22 13:06 UTC.
Position N 55°30' W 006°26'.

Length 97 m; draft 5.5 m.

Type: Ship (hazmat cat B). MMSI: 477560836.

Date/timePositionNaut miles runAvg speedWind from/ knotsBaromVisibWave heightAir tempDewpointWater temp
2017-Nov-20 00:30N 55°30' W 006°26'713.9
2017-Nov-20 00:01N 55°26' W 006°16'713.6
2017-Nov-19 23:30N 55°25' W 006°04'612.5
2017-Nov-19 23:00N 55°20' W 005°57'612.1
2017-Nov-19 22:30N 55°15' W 005°50'712.1
2017-Nov-19 21:54N 55°09' W 005°43'1612.4
2017-Nov-19 20:35N 54°55' W 005°30'112.1
2017-Nov-19 20:30N 54°54' W 005°29'612.2
2017-Nov-19 20:00N 54°49' W 005°24'612.3
2017-Nov-19 19:30N 54°44' W 005°18'612.8
2017-Nov-19 19:00N 54°38' W 005°14'613.0
2017-Nov-19 18:30N 54°32' W 005°11'713.7
2017-Nov-19 18:00N 54°25' W 005°08'6813.3
2017-Nov-19 12:53N 53°34' W 003°51'614.6
2017-Nov-19 12:30N 53°34' W 003°42'714.1
2017-Nov-19 12:00N 53°34' W 003°30'713.5
2017-Nov-19 11:30N 53°32' W 003°19'510.7
2017-Nov-19 11:00N 53°32' W 003°10'611.9
2017-Nov-19 10:30N 53°28' W 003°03'510.0
2017-Nov-19 10:00N 53°23' W 002°60'4 8.2
2017-Nov-19 09:30N 53°19' W 002°57'0 0.2
2017-Nov-19 09:00N 53°19' W 002°57'3 5.3
2017-Nov-19 08:30N 53°17' W 002°54'2 3.5
2017-Nov-19 08:00N 53°17' W 002°51'0 0.0
2017-Nov-19 07:30N 53°17' W 002°51'0 0.0
2017-Nov-19 07:00N 53°17' W 002°51'0 0.0
2017-Nov-19 06:30N 53°17' W 002°51'0 0.0
2017-Nov-19 06:00N 53°17' W 002°51'0 0.0
2017-Nov-19 05:30N 53°17' W 002°51'0 0.0
2017-Nov-19 05:00N 53°17' W 002°51'0 0.0
2017-Nov-19 04:30N 53°17' W 002°51'0 0.0
2017-Nov-19 04:00N 53°17' W 002°51'0 0.0
2017-Nov-19 03:30N 53°17' W 002°51'0 0.0
2017-Nov-19 03:00N 53°17' W 002°51'0 0.0
2017-Nov-19 02:30N 53°17' W 002°51'0 0.0
2017-Nov-19 02:00N 53°17' W 002°51'0 0.0
2017-Nov-19 01:30N 53°17' W 002°51'0 0.0
2017-Nov-19 01:00N 53°17' W 002°51'0 0.0
2017-Nov-19 00:30N 53°17' W 002°51'0 0.0
2017-Nov-19 00:00N 53°17' W 002°51'0 0.0
2017-Nov-18 23:30N 53°17' W 002°51'0 0.0
2017-Nov-18 23:00N 53°17' W 002°51'0 0.0
2017-Nov-18 22:30N 53°17' W 002°51'0 0.0
2017-Nov-18 22:00N 53°17' W 002°51'0 0.0
2017-Nov-18 21:30N 53°17' W 002°51'0 0.0
2017-Nov-18 21:00N 53°17' W 002°51'0 0.0
2017-Nov-18 20:30N 53°17' W 002°51'0 0.0
2017-Nov-18 20:00N 53°17' W 002°51'0 0.0
2017-Nov-18 19:30N 53°17' W 002°51'0 0.0
2017-Nov-18 19:00N 53°17' W 002°51'0 0.0
2017-Nov-18 18:30N 53°17' W 002°51'0 0.0
2017-Nov-18 18:00N 53°17' W 002°51'0 0.0
2017-Nov-18 17:30N 53°17' W 002°51'0 0.0
2017-Nov-18 17:00N 53°17' W 002°51'0 0.0
2017-Nov-18 16:30N 53°17' W 002°51'0 0.0
2017-Nov-18 16:00N 53°17' W 002°51'0 0.0
2017-Nov-18 15:30N 53°17' W 002°51'0 0.0
2017-Nov-18 15:00N 53°17' W 002°51'0 0.0
2017-Nov-18 14:30N 53°17' W 002°51'0 0.0
2017-Nov-18 14:00N 53°17' W 002°51'0 0.0
2017-Nov-18 13:30N 53°17' W 002°51'0 0.2
2017-Nov-18 13:00N 53°17' W 002°51'1 2.6
2017-Nov-18 12:30N 53°17' W 002°53'3 6.1
2017-Nov-18 12:00N 53°19' W 002°57'0 1.0
2017-Nov-18 11:30N 53°20' W 002°57'2 3.1
2017-Nov-18 11:00N 53°21' W 002°58'4 8.0
2017-Nov-18 10:30N 53°25' W 003°01'510.6
2017-Nov-18 10:00N 53°29' W 003°05'5 9.2
2017-Nov-18 09:30N 53°31' W 003°12'510.3
2017-Nov-18 09:00N 53°31' W 003°21'510.2
2017-Nov-18 08:30N 53°31' W 003°30'611.2
2017-Nov-18 08:00N 53°30' W 003°39'510.7
2017-Nov-18 07:30N 53°29' W 003°48'611.5
2017-Nov-18 07:00N 53°28' W 003°57'510.6
2017-Nov-18 06:30N 53°27' W 004°06'  
2017-Nov-12 12:41N 54°08' W 004°27'38 9.2
2017-Nov-12 08:35N 53°38' W 003°48'2 8.5
2017-Nov-12 08:23N 53°37' W 003°47'3 8.6
2017-Nov-12 07:59N 53°34' W 003°43'5 9.5
2017-Nov-12 07:30N 53°33' W 003°35'5 9.8
2017-Nov-12 07:00N 53°33' W 003°27'510.0
2017-Nov-12 06:30N 53°32' W 003°19'5 9.8
2017-Nov-12 06:00N 53°32' W 003°11'4 8.6
2017-Nov-12 05:30N 53°29' W 003°05'4 8.8
2017-Nov-12 05:00N 53°25' W 003°01'4 8.2
2017-Nov-12 04:30N 53°22' W 002°58'2 4.9
2017-Nov-12 04:00N 53°19' W 002°57'0 0.9
2017-Nov-12 03:30N 53°19' W 002°56'3 6.0
2017-Nov-12 03:00N 53°17' W 002°52'0 0.7
2017-Nov-12 02:30N 53°17' W 002°52'0 0.0
2017-Nov-12 01:57N 53°17' W 002°52'0 0.0
2017-Nov-12 01:30N 53°17' W 002°52'0 0.0
2017-Nov-12 01:00N 53°17' W 002°52'0 0.0
2017-Nov-12 00:30N 53°17' W 002°52'0 0.0
2017-Nov-11 23:57N 53°17' W 002°52'0 0.0
2017-Nov-11 23:30N 53°17' W 002°52'0 0.0
2017-Nov-11 23:00N 53°17' W 002°52'0 0.0
2017-Nov-11 22:30N 53°17' W 002°52'0 0.0
2017-Nov-11 22:00N 53°17' W 002°52'0 0.0
2017-Nov-11 21:27N 53°17' W 002°52'0 0.0
2017-Nov-11 21:00N 53°17' W 002°52'0 0.0
2017-Nov-11 20:30N 53°17' W 002°52'0 0.0
2017-Nov-11 20:00N 53°17' W 002°52'0 0.0
2017-Nov-11 19:30N 53°17' W 002°52'0 0.0
2017-Nov-11 19:00N 53°17' W 002°52'0 0.0
2017-Nov-11 18:30N 53°17' W 002°52'0 0.0
2017-Nov-11 17:57N 53°17' W 002°52'0 0.0
2017-Nov-11 17:30N 53°17' W 002°52'0 0.0
2017-Nov-11 17:00N 53°17' W 002°52'0 0.0
2017-Nov-11 16:24N 53°17' W 002°52'0 0.0
2017-Nov-11 15:54N 53°17' W 002°52'0 0.0
2017-Nov-11 15:30N 53°17' W 002°52'0 0.0
2017-Nov-11 14:42N 53°17' W 002°52'0 0.0
2017-Nov-11 14:30N 53°17' W 002°52'0 0.0
2017-Nov-11 14:00N 53°17' W 002°52'0 0.0
2017-Nov-11 13:30N 53°17' W 002°52'0 0.0
2017-Nov-11 13:00N 53°17' W 002°52'0 0.0
2017-Nov-11 12:30N 53°17' W 002°52'0 0.0
2017-Nov-11 11:54N 53°17' W 002°52'0 0.0
2017-Nov-11 11:15N 53°17' W 002°52'0 0.0
2017-Nov-11 10:57N 53°17' W 002°52'0 0.0
2017-Nov-11 10:15N 53°17' W 002°52'0 0.0
2017-Nov-11 10:00N 53°17' W 002°52'0 0.0
2017-Nov-11 09:30N 53°17' W 002°52'0 0.0
2017-Nov-11 09:00N 53°17' W 002°52'0 0.0
2017-Nov-11 08:30N 53°17' W 002°52'0 0.0
2017-Nov-11 08:00N 53°17' W 002°52'0 0.0
2017-Nov-11 07:30N 53°17' W 002°52'0 0.0
2017-Nov-11 07:00N 53°17' W 002°52'0 0.0
2017-Nov-11 06:30N 53°17' W 002°52'0 0.0
2017-Nov-11 06:00N 53°17' W 002°52'0 0.0
2017-Nov-11 05:21N 53°17' W 002°52'0 0.0
2017-Nov-11 04:57N 53°17' W 002°52'0 0.0
2017-Nov-11 04:30N 53°17' W 002°52'0 0.0
2017-Nov-11 03:54N 53°17' W 002°52'0 0.0
2017-Nov-11 03:30N 53°17' W 002°52'0 0.0
2017-Nov-11 03:00N 53°17' W 002°52'0 0.0
2017-Nov-11 02:30N 53°17' W 002°52'0 0.0
2017-Nov-11 02:00N 53°17' W 002°52'0 0.0
2017-Nov-11 01:30N 53°17' W 002°52'0 0.0
2017-Nov-11 01:00N 53°17' W 002°52'0 0.0
2017-Nov-11 00:24N 53°17' W 002°52'0 0.0
2017-Nov-11 00:00N 53°17' W 002°52'0 0.0
2017-Nov-10 23:24N 53°17' W 002°52'0 0.0
2017-Nov-10 22:57N 53°17' W 002°52'0 0.0
2017-Nov-10 22:30N 53°17' W 002°52'0 0.0
2017-Nov-10 22:00N 53°17' W 002°52'0 0.0
2017-Nov-10 21:30N 53°17' W 002°52'0 0.0
2017-Nov-10 21:00N 53°17' W 002°52'0 0.0
2017-Nov-10 20:30N 53°17' W 002°52'0 0.0
2017-Nov-10 20:00N 53°17' W 002°52'0 0.0
2017-Nov-10 19:30N 53°17' W 002°52'0 0.0
2017-Nov-10 19:00N 53°17' W 002°52'0 0.0
2017-Nov-10 18:27N 53°17' W 002°52'0 0.0
2017-Nov-10 18:00N 53°17' W 002°52'0 0.0
2017-Nov-10 17:30N 53°17' W 002°52'0 0.0
2017-Nov-10 17:00N 53°17' W 002°52'0 0.0
2017-Nov-10 16:30N 53°17' W 002°52'0 0.0
2017-Nov-10 16:00N 53°17' W 002°52'0 0.0
2017-Nov-10 15:30N 53°17' W 002°52'0 0.0
2017-Nov-10 15:00N 53°17' W 002°52'0 0.0
2017-Nov-10 14:30N 53°17' W 002°52'0 0.0
2017-Nov-10 14:00N 53°17' W 002°52'0 0.0
2017-Nov-10 13:21N 53°17' W 002°52'0 0.0
2017-Nov-10 13:00N 53°17' W 002°52'0 0.0
2017-Nov-10 12:30N 53°17' W 002°52'0 0.0
2017-Nov-10 12:00N 53°17' W 002°52'0 0.0
2017-Nov-10 11:30N 53°17' W 002°52'0 0.0
2017-Nov-10 10:54N 53°17' W 002°52'0 0.0
2017-Nov-10 10:24N 53°17' W 002°52'0 0.0
2017-Nov-10 10:00N 53°17' W 002°52'0 0.0
2017-Nov-10 09:30N 53°17' W 002°52'0 0.0
2017-Nov-10 09:00N 53°17' W 002°52'0 0.0
2017-Nov-10 08:30N 53°17' W 002°52'0 0.0
2017-Nov-10 08:00N 53°17' W 002°52'0 0.0
2017-Nov-10 07:30N 53°17' W 002°52'0 0.0
2017-Nov-10 07:00N 53°17' W 002°52'0 0.0
2017-Nov-10 06:30N 53°17' W 002°52'0 0.0
2017-Nov-10 06:00N 53°17' W 002°52'0 0.0
2017-Nov-10 05:30N 53°17' W 002°52'0 0.0
2017-Nov-10 05:00N 53°17' W 002°52'0 0.0
2017-Nov-10 04:24N 53°17' W 002°52'0 0.0
2017-Nov-10 04:00N 53°17' W 002°52'0 0.0
2017-Nov-10 03:30N 53°17' W 002°52'0 0.0
2017-Nov-10 03:00N 53°17' W 002°52'0 0.0
2017-Nov-10 02:30N 53°17' W 002°52'0 0.0
2017-Nov-10 02:00N 53°17' W 002°52'0 0.0
2017-Nov-10 01:30N 53°17' W 002°52'0 0.0
2017-Nov-10 01:00N 53°17' W 002°52'  
Track history (hours):
 
Tides and Currents Weather Stations Pressure Air Temp Water Temp Dewpoint Dewpoint Depression Visibility Wind Speed Wind Dir Waves Ship Positions

Marianne

Last reported at 2017-Nov-20 00:30 UTC. Time now 2017-Nov-22 13:06 UTC.
Position N 55°30' W 006°26'.

Length 97 m; draft 5.5 m.

Type: Ship (hazmat cat B). MMSI: 477560836.

Date/timePositionNaut miles runAvg speedWind from/ knotsBaromVisibWave heightAir tempDewpointWater temp
2017-Nov-20 00:30N 55°30' W 006°26'713.9
2017-Nov-20 00:01N 55°26' W 006°16'713.6
2017-Nov-19 23:30N 55°25' W 006°04'612.5
2017-Nov-19 23:00N 55°20' W 005°57'612.1
2017-Nov-19 22:30N 55°15' W 005°50'712.1
2017-Nov-19 21:54N 55°09' W 005°43'1612.4
2017-Nov-19 20:35N 54°55' W 005°30'112.1
2017-Nov-19 20:30N 54°54' W 005°29'612.2
2017-Nov-19 20:00N 54°49' W 005°24'612.3
2017-Nov-19 19:30N 54°44' W 005°18'612.8
2017-Nov-19 19:00N 54°38' W 005°14'613.0
2017-Nov-19 18:30N 54°32' W 005°11'713.7
2017-Nov-19 18:00N 54°25' W 005°08'6813.3
2017-Nov-19 12:53N 53°34' W 003°51'614.6
2017-Nov-19 12:30N 53°34' W 003°42'714.1
2017-Nov-19 12:00N 53°34' W 003°30'713.5
2017-Nov-19 11:30N 53°32' W 003°19'510.7
2017-Nov-19 11:00N 53°32' W 003°10'611.9
2017-Nov-19 10:30N 53°28' W 003°03'510.0
2017-Nov-19 10:00N 53°23' W 002°60'4 8.2
2017-Nov-19 09:30N 53°19' W 002°57'0 0.2
2017-Nov-19 09:00N 53°19' W 002°57'3 5.3
2017-Nov-19 08:30N 53°17' W 002°54'2 3.5
2017-Nov-19 08:00N 53°17' W 002°51'0 0.0
2017-Nov-19 07:30N 53°17' W 002°51'0 0.0
2017-Nov-19 07:00N 53°17' W 002°51'0 0.0
2017-Nov-19 06:30N 53°17' W 002°51'0 0.0
2017-Nov-19 06:00N 53°17' W 002°51'0 0.0
2017-Nov-19 05:30N 53°17' W 002°51'0 0.0
2017-Nov-19 05:00N 53°17' W 002°51'0 0.0
2017-Nov-19 04:30N 53°17' W 002°51'0 0.0
2017-Nov-19 04:00N 53°17' W 002°51'0 0.0
2017-Nov-19 03:30N 53°17' W 002°51'0 0.0
2017-Nov-19 03:00N 53°17' W 002°51'0 0.0
2017-Nov-19 02:30N 53°17' W 002°51'0 0.0
2017-Nov-19 02:00N 53°17' W 002°51'0 0.0
2017-Nov-19 01:30N 53°17' W 002°51'0 0.0
2017-Nov-19 01:00N 53°17' W 002°51'0 0.0
2017-Nov-19 00:30N 53°17' W 002°51'0 0.0
2017-Nov-19 00:00N 53°17' W 002°51'0 0.0
2017-Nov-18 23:30N 53°17' W 002°51'0 0.0
2017-Nov-18 23:00N 53°17' W 002°51'0 0.0
2017-Nov-18 22:30N 53°17' W 002°51'0 0.0
2017-Nov-18 22:00N 53°17' W 002°51'0 0.0
2017-Nov-18 21:30N 53°17' W 002°51'0 0.0
2017-Nov-18 21:00N 53°17' W 002°51'0 0.0
2017-Nov-18 20:30N 53°17' W 002°51'0 0.0
2017-Nov-18 20:00N 53°17' W 002°51'0 0.0
2017-Nov-18 19:30N 53°17' W 002°51'0 0.0
2017-Nov-18 19:00N 53°17' W 002°51'0 0.0
2017-Nov-18 18:30N 53°17' W 002°51'0 0.0
2017-Nov-18 18:00N 53°17' W 002°51'0 0.0
2017-Nov-18 17:30N 53°17' W 002°51'0 0.0
2017-Nov-18 17:00N 53°17' W 002°51'0 0.0
2017-Nov-18 16:30N 53°17' W 002°51'0 0.0
2017-Nov-18 16:00N 53°17' W 002°51'0 0.0
2017-Nov-18 15:30N 53°17' W 002°51'0 0.0
2017-Nov-18 15:00N 53°17' W 002°51'0 0.0
2017-Nov-18 14:30N 53°17' W 002°51'0 0.0
2017-Nov-18 14:00N 53°17' W 002°51'0 0.0
2017-Nov-18 13:30N 53°17' W 002°51'0 0.2
2017-Nov-18 13:00N 53°17' W 002°51'1 2.6
2017-Nov-18 12:30N 53°17' W 002°53'3 6.1
2017-Nov-18 12:00N 53°19' W 002°57'0 1.0
2017-Nov-18 11:30N 53°20' W 002°57'2 3.1
2017-Nov-18 11:00N 53°21' W 002°58'4 8.0
2017-Nov-18 10:30N 53°25' W 003°01'510.6
2017-Nov-18 10:00N 53°29' W 003°05'5 9.2
2017-Nov-18 09:30N 53°31' W 003°12'510.3
2017-Nov-18 09:00N 53°31' W 003°21'510.2
2017-Nov-18 08:30N 53°31' W 003°30'611.2
2017-Nov-18 08:00N 53°30' W 003°39'510.7
2017-Nov-18 07:30N 53°29' W 003°48'611.5
2017-Nov-18 07:00N 53°28' W 003°57'510.6
2017-Nov-18 06:30N 53°27' W 004°06'  
2017-Nov-12 12:41N 54°08' W 004°27'38 9.2
2017-Nov-12 08:35N 53°38' W 003°48'2 8.5
2017-Nov-12 08:23N 53°37' W 003°47'3 8.6
2017-Nov-12 07:59N 53°34' W 003°43'5 9.5
2017-Nov-12 07:30N 53°33' W 003°35'5 9.8
2017-Nov-12 07:00N 53°33' W 003°27'510.0
2017-Nov-12 06:30N 53°32' W 003°19'5 9.8
2017-Nov-12 06:00N 53°32' W 003°11'4 8.6
2017-Nov-12 05:30N 53°29' W 003°05'4 8.8
2017-Nov-12 05:00N 53°25' W 003°01'4 8.2
2017-Nov-12 04:30N 53°22' W 002°58'2 4.9
2017-Nov-12 04:00N 53°19' W 002°57'0 0.9
2017-Nov-12 03:30N 53°19' W 002°56'3 6.0
2017-Nov-12 03:00N 53°17' W 002°52'0 0.7
2017-Nov-12 02:30N 53°17' W 002°52'0 0.0
2017-Nov-12 01:57N 53°17' W 002°52'0 0.0
2017-Nov-12 01:30N 53°17' W 002°52'0 0.0
2017-Nov-12 01:00N 53°17' W 002°52'0 0.0
2017-Nov-12 00:30N 53°17' W 002°52'0 0.0
2017-Nov-11 23:57N 53°17' W 002°52'0 0.0
2017-Nov-11 23:30N 53°17' W 002°52'0 0.0
2017-Nov-11 23:00N 53°17' W 002°52'0 0.0
2017-Nov-11 22:30N 53°17' W 002°52'0 0.0
2017-Nov-11 22:00N 53°17' W 002°52'0 0.0
2017-Nov-11 21:27N 53°17' W 002°52'0 0.0
2017-Nov-11 21:00N 53°17' W 002°52'0 0.0
2017-Nov-11 20:30N 53°17' W 002°52'0 0.0
2017-Nov-11 20:00N 53°17' W 002°52'0 0.0
2017-Nov-11 19:30N 53°17' W 002°52'0 0.0
2017-Nov-11 19:00N 53°17' W 002°52'0 0.0
2017-Nov-11 18:30N 53°17' W 002°52'0 0.0
2017-Nov-11 17:57N 53°17' W 002°52'0 0.0
2017-Nov-11 17:30N 53°17' W 002°52'0 0.0
2017-Nov-11 17:00N 53°17' W 002°52'0 0.0
2017-Nov-11 16:24N 53°17' W 002°52'0 0.0
2017-Nov-11 15:54N 53°17' W 002°52'0 0.0
2017-Nov-11 15:30N 53°17' W 002°52'0 0.0
2017-Nov-11 14:42N 53°17' W 002°52'0 0.0
2017-Nov-11 14:30N 53°17' W 002°52'0 0.0
2017-Nov-11 14:00N 53°17' W 002°52'0 0.0
2017-Nov-11 13:30N 53°17' W 002°52'0 0.0
2017-Nov-11 13:00N 53°17' W 002°52'0 0.0
2017-Nov-11 12:30N 53°17' W 002°52'0 0.0
2017-Nov-11 11:54N 53°17' W 002°52'0 0.0
2017-Nov-11 11:15N 53°17' W 002°52'0 0.0
2017-Nov-11 10:57N 53°17' W 002°52'0 0.0
2017-Nov-11 10:15N 53°17' W 002°52'0 0.0
2017-Nov-11 10:00N 53°17' W 002°52'0 0.0
2017-Nov-11 09:30N 53°17' W 002°52'0 0.0
2017-Nov-11 09:00N 53°17' W 002°52'0 0.0
2017-Nov-11 08:30N 53°17' W 002°52'0 0.0
2017-Nov-11 08:00N 53°17' W 002°52'0 0.0
2017-Nov-11 07:30N 53°17' W 002°52'0 0.0
2017-Nov-11 07:00N 53°17' W 002°52'0 0.0
2017-Nov-11 06:30N 53°17' W 002°52'0 0.0
2017-Nov-11 06:00N 53°17' W 002°52'0 0.0
2017-Nov-11 05:21N 53°17' W 002°52'0 0.0
2017-Nov-11 04:57N 53°17' W 002°52'0 0.0
2017-Nov-11 04:30N 53°17' W 002°52'0 0.0
2017-Nov-11 03:54N 53°17' W 002°52'0 0.0
2017-Nov-11 03:30N 53°17' W 002°52'0 0.0
2017-Nov-11 03:00N 53°17' W 002°52'0 0.0
2017-Nov-11 02:30N 53°17' W 002°52'0 0.0
2017-Nov-11 02:00N 53°17' W 002°52'0 0.0
2017-Nov-11 01:30N 53°17' W 002°52'0 0.0
2017-Nov-11 01:00N 53°17' W 002°52'0 0.0
2017-Nov-11 00:24N 53°17' W 002°52'0 0.0
2017-Nov-11 00:00N 53°17' W 002°52'0 0.0
2017-Nov-10 23:24N 53°17' W 002°52'0 0.0
2017-Nov-10 22:57N 53°17' W 002°52'0 0.0
2017-Nov-10 22:30N 53°17' W 002°52'0 0.0
2017-Nov-10 22:00N 53°17' W 002°52'0 0.0
2017-Nov-10 21:30N 53°17' W 002°52'0 0.0
2017-Nov-10 21:00N 53°17' W 002°52'0 0.0
2017-Nov-10 20:30N 53°17' W 002°52'0 0.0
2017-Nov-10 20:00N 53°17' W 002°52'0 0.0
2017-Nov-10 19:30N 53°17' W 002°52'0 0.0
2017-Nov-10 19:00N 53°17' W 002°52'0 0.0
2017-Nov-10 18:27N 53°17' W 002°52'0 0.0
2017-Nov-10 18:00N 53°17' W 002°52'0 0.0
2017-Nov-10 17:30N 53°17' W 002°52'0 0.0
2017-Nov-10 17:00N 53°17' W 002°52'0 0.0
2017-Nov-10 16:30N 53°17' W 002°52'0 0.0
2017-Nov-10 16:00N 53°17' W 002°52'0 0.0
2017-Nov-10 15:30N 53°17' W 002°52'0 0.0
2017-Nov-10 15:00N 53°17' W 002°52'0 0.0
2017-Nov-10 14:30N 53°17' W 002°52'0 0.0
2017-Nov-10 14:00N 53°17' W 002°52'0 0.0
2017-Nov-10 13:21N 53°17' W 002°52'0 0.0
2017-Nov-10 13:00N 53°17' W 002°52'0 0.0
2017-Nov-10 12:30N 53°17' W 002°52'0 0.0
2017-Nov-10 12:00N 53°17' W 002°52'0 0.0
2017-Nov-10 11:30N 53°17' W 002°52'0 0.0
2017-Nov-10 10:54N 53°17' W 002°52'0 0.0
2017-Nov-10 10:24N 53°17' W 002°52'0 0.0
2017-Nov-10 10:00N 53°17' W 002°52'0 0.0
2017-Nov-10 09:30N 53°17' W 002°52'0 0.0
2017-Nov-10 09:00N 53°17' W 002°52'0 0.0
2017-Nov-10 08:30N 53°17' W 002°52'0 0.0
2017-Nov-10 08:00N 53°17' W 002°52'0 0.0
2017-Nov-10 07:30N 53°17' W 002°52'0 0.0
2017-Nov-10 07:00N 53°17' W 002°52'0 0.0
2017-Nov-10 06:30N 53°17' W 002°52'0 0.0
2017-Nov-10 06:00N 53°17' W 002°52'0 0.0
2017-Nov-10 05:30N 53°17' W 002°52'0 0.0
2017-Nov-10 05:00N 53°17' W 002°52'0 0.0
2017-Nov-10 04:24N 53°17' W 002°52'0 0.0
2017-Nov-10 04:00N 53°17' W 002°52'0 0.0
2017-Nov-10 03:30N 53°17' W 002°52'0 0.0
2017-Nov-10 03:00N 53°17' W 002°52'0 0.0
2017-Nov-10 02:30N 53°17' W 002°52'0 0.0
2017-Nov-10 02:00N 53°17' W 002°52'0 0.0
2017-Nov-10 01:30N 53°17' W 002°52'0 0.0
2017-Nov-10 01:00N 53°17' W 002°52'  

Dump ship's entire track history